createdAt,value
2022-09-23T00:00:34.267Z,10.9
2022-09-23T00:01:34.518Z,10.9
2022-09-23T00:02:34.427Z,10.9
2022-09-23T00:03:34.316Z,10.9
2022-09-23T00:04:34.438Z,10.8
2022-09-23T00:05:34.325Z,10.8
2022-09-23T00:06:34.342Z,10.9
2022-09-23T00:07:34.450Z,10.9
2022-09-23T00:12:34.459Z,10.9
2022-09-23T00:13:34.446Z,10.8
2022-09-23T00:14:34.368Z,10.8
2022-09-23T00:15:34.462Z,10.8
2022-09-23T00:16:34.685Z,10.8
2022-09-23T00:17:34.548Z,10.8
2022-09-23T00:18:34.595Z,10.8
2022-09-23T00:19:34.256Z,10.8
2022-09-23T00:20:34.616Z,10.9
2022-09-23T00:21:34.678Z,10.9
2022-09-23T00:22:34.264Z,10.9
2022-09-23T00:23:34.262Z,11
2022-09-23T00:24:34.334Z,11
2022-09-23T00:25:34.364Z,10.9
2022-09-23T00:26:34.258Z,11
2022-09-23T00:27:34.330Z,11
2022-09-23T00:28:34.368Z,11
2022-09-23T00:29:34.287Z,11.1
2022-09-23T00:30:34.303Z,11
2022-09-23T00:31:34.262Z,11.1
2022-09-23T00:32:34.397Z,11
2022-09-23T00:33:34.404Z,11
2022-09-23T00:34:34.301Z,11
2022-09-23T00:35:34.314Z,10.9
2022-09-23T00:36:34.275Z,10.9
2022-09-23T00:37:34.268Z,10.9
2022-09-23T00:38:34.365Z,10.9
2022-09-23T00:39:34.353Z,10.9
2022-09-23T00:40:34.349Z,10.9
2022-09-23T00:41:34.358Z,10.8
2022-09-23T00:42:34.262Z,10.8
2022-09-23T00:43:34.266Z,10.9
2022-09-23T00:44:34.399Z,10.8
2022-09-23T00:45:34.284Z,10.9
2022-09-23T00:46:34.338Z,10.8
2022-09-23T00:47:34.286Z,10.8
2022-09-23T00:48:34.408Z,10.9
2022-09-23T00:49:34.308Z,10.8
2022-09-23T00:50:34.314Z,10.8
2022-09-23T00:51:34.262Z,10.8
2022-09-23T00:52:34.302Z,10.7
2022-09-23T00:53:34.346Z,10.7
2022-09-23T00:54:34.341Z,10.7
2022-09-23T00:55:34.346Z,10.6
2022-09-23T00:56:34.467Z,10.7
2022-09-23T00:57:34.356Z,10.7
2022-09-23T00:58:34.355Z,10.6
2022-09-23T00:59:34.269Z,10.6
2022-09-23T01:00:34.306Z,10.6
2022-09-23T01:01:34.428Z,10.5
2022-09-23T01:02:34.335Z,10.6
2022-09-23T01:03:34.343Z,10.6
2022-09-23T01:04:34.377Z,10.7
2022-09-23T01:05:34.268Z,10.6
2022-09-23T01:06:34.266Z,10.5
2022-09-23T01:07:34.295Z,10.6
2022-09-23T01:08:34.264Z,10.6
2022-09-23T01:09:34.264Z,10.6
2022-09-23T01:10:34.270Z,10.7
2022-09-23T01:11:34.437Z,10.6
2022-09-23T01:12:34.368Z,10.7
2022-09-23T01:13:34.351Z,10.7
2022-09-23T01:14:34.364Z,10.7
2022-09-23T01:15:34.281Z,10.6
2022-09-23T01:16:34.388Z,10.6
2022-09-23T01:17:34.278Z,10.5
2022-09-23T01:18:34.334Z,10.5
2022-09-23T01:19:34.384Z,10.6
2022-09-23T01:20:34.296Z,10.6
2022-09-23T01:21:34.515Z,10.6
2022-09-23T01:22:34.269Z,10.6
2022-09-23T01:23:34.342Z,10.6
2022-09-23T01:24:34.347Z,10.5
2022-09-23T01:25:34.337Z,10.6
2022-09-23T01:26:34.344Z,10.6
2022-09-23T01:27:34.378Z,10.7
2022-09-23T01:28:34.255Z,10.7
2022-09-23T01:29:34.281Z,10.7
2022-09-23T01:30:34.345Z,10.7
2022-09-23T01:31:34.373Z,10.7
2022-09-23T01:32:34.260Z,10.6
2022-09-23T01:33:34.281Z,10.6
2022-09-23T01:34:34.391Z,10.5
2022-09-23T01:35:34.315Z,10.6
2022-09-23T01:36:34.262Z,10.5
2022-09-23T01:37:34.312Z,10.5
2022-09-23T01:38:34.326Z,10.5
2022-09-23T01:39:34.327Z,10.4
2022-09-23T01:40:34.337Z,10.4
2022-09-23T01:41:34.383Z,10.3
2022-09-23T01:42:34.368Z,10.3
2022-09-23T01:43:34.343Z,10.3
2022-09-23T01:44:34.350Z,10.4
2022-09-23T01:45:34.360Z,10.5
2022-09-23T01:46:34.265Z,10.5
2022-09-23T01:47:34.365Z,10.5
2022-09-23T01:48:34.516Z,10.4
2022-09-23T01:49:34.396Z,10.5
2022-09-23T01:50:34.485Z,10.5
2022-09-23T01:51:34.293Z,10.6
2022-09-23T01:52:34.334Z,10.5
2022-09-23T01:53:34.278Z,10.4
2022-09-23T01:54:34.341Z,10.4
2022-09-23T01:55:34.339Z,10.4
2022-09-23T01:56:34.334Z,10.4
2022-09-23T01:57:34.425Z,10.3
2022-09-23T01:58:34.335Z,10.3
2022-09-23T01:59:34.345Z,10.4
2022-09-23T02:00:34.267Z,10.3
2022-09-23T02:01:34.432Z,10.3
2022-09-23T02:02:34.467Z,10.3
2022-09-23T02:03:34.366Z,10.4
2022-09-23T02:04:34.376Z,10.3
2022-09-23T02:05:34.369Z,10.3
2022-09-23T02:06:34.311Z,10.3
2022-09-23T02:07:34.286Z,10.3
2022-09-23T02:08:34.304Z,10.3
2022-09-23T02:09:34.306Z,10.3
2022-09-23T02:10:34.425Z,10.3
2022-09-23T02:11:34.255Z,10.4
2022-09-23T02:12:34.507Z,10.4
2022-09-23T02:13:34.427Z,10.3
2022-09-23T02:14:34.340Z,10.3
2022-09-23T02:15:34.347Z,10.2
2022-09-23T02:16:34.426Z,10.2
2022-09-23T02:17:34.350Z,10.2
2022-09-23T02:18:34.277Z,10.1
2022-09-23T02:19:34.282Z,10.2
2022-09-23T02:20:34.414Z,10.2
2022-09-23T02:21:34.274Z,10.2
2022-09-23T02:22:34.303Z,10.2
2022-09-23T02:23:34.283Z,10.2
2022-09-23T02:24:34.274Z,10.1
2022-09-23T02:25:34.325Z,10.1
2022-09-23T02:26:34.264Z,10.1
2022-09-23T02:27:34.358Z,10
2022-09-23T02:28:34.362Z,10
2022-09-23T02:29:34.268Z,9.9
2022-09-23T02:30:34.269Z,10
2022-09-23T02:31:34.473Z,10
2022-09-23T02:32:34.362Z,10
2022-09-23T02:33:34.278Z,10
2022-09-23T02:34:34.283Z,10
2022-09-23T02:35:34.365Z,10
2022-09-23T02:36:34.477Z,10
2022-09-23T02:37:34.386Z,10
2022-09-23T02:38:34.300Z,10
2022-09-23T02:39:34.308Z,10
2022-09-23T02:40:34.322Z,10
2022-09-23T02:41:34.332Z,10
2022-09-23T02:42:34.275Z,10
2022-09-23T02:43:34.347Z,9.9
2022-09-23T02:44:34.336Z,10
2022-09-23T02:45:34.477Z,10
2022-09-23T02:46:34.342Z,10
2022-09-23T02:47:34.345Z,10
2022-09-23T02:48:34.369Z,9.9
2022-09-23T02:49:34.287Z,9.9
2022-09-23T02:50:34.478Z,9.9
2022-09-23T02:51:34.383Z,10
2022-09-23T02:52:34.276Z,9.9
2022-09-23T02:53:34.363Z,9.9
2022-09-23T02:54:34.277Z,9.9
2022-09-23T02:55:34.298Z,9.9
2022-09-23T02:56:34.331Z,9.8
2022-09-23T02:57:34.337Z,9.8
2022-09-23T02:58:34.426Z,9.8
2022-09-23T02:59:34.431Z,9.8
2022-09-23T03:00:34.332Z,9.8
2022-09-23T03:01:34.389Z,9.8
2022-09-23T03:02:34.373Z,9.8
2022-09-23T03:03:34.278Z,9.8
2022-09-23T03:04:34.292Z,9.8
2022-09-23T03:05:34.268Z,9.8
2022-09-23T03:06:34.340Z,9.8
2022-09-23T03:07:34.275Z,9.8
2022-09-23T03:08:34.396Z,9.8
2022-09-23T03:09:34.388Z,9.8
2022-09-23T03:10:34.302Z,9.8
2022-09-23T03:11:34.293Z,9.8
2022-09-23T03:12:34.277Z,9.8
2022-09-23T03:13:34.408Z,9.8
2022-09-23T03:14:34.376Z,9.8
2022-09-23T03:15:34.328Z,9.7
2022-09-23T03:16:34.535Z,9.7
2022-09-23T03:17:34.328Z,9.7
2022-09-23T03:18:34.279Z,9.7
2022-09-23T03:19:34.277Z,9.7
2022-09-23T03:20:34.274Z,9.7
2022-09-23T03:21:34.462Z,9.7
2022-09-23T03:22:34.478Z,9.7
2022-09-23T03:23:34.385Z,9.7
2022-09-23T03:24:34.269Z,9.7
2022-09-23T03:25:34.289Z,9.7
2022-09-23T03:26:34.290Z,9.8
2022-09-23T03:27:34.316Z,9.7
2022-09-23T03:28:34.310Z,9.7
2022-09-23T03:29:34.424Z,9.7
2022-09-23T03:30:34.328Z,9.7
2022-09-23T03:31:34.368Z,9.7
2022-09-23T03:32:34.282Z,9.6
2022-09-23T03:33:34.286Z,9.6
2022-09-23T03:34:34.363Z,9.6
2022-09-23T03:35:34.293Z,9.6
2022-09-23T03:36:34.455Z,9.6
2022-09-23T03:37:34.388Z,9.6
2022-09-23T03:38:34.273Z,9.6
2022-09-23T03:39:34.371Z,9.6
2022-09-23T03:40:34.335Z,9.6
2022-09-23T03:41:34.276Z,9.7
2022-09-23T03:42:34.296Z,9.6
2022-09-23T03:43:38.661Z,9.6
2022-09-23T03:44:34.364Z,9.6
2022-09-23T03:45:34.523Z,9.5
2022-09-23T03:46:34.257Z,9.6
2022-09-23T03:47:34.277Z,9.5
2022-09-23T03:48:34.277Z,9.5
2022-09-23T03:49:34.337Z,9.5
2022-09-23T03:50:34.273Z,9.5
2022-09-23T03:51:34.272Z,9.6
2022-09-23T03:52:34.368Z,9.5
2022-09-23T03:53:34.288Z,9.6
2022-09-23T03:54:34.271Z,9.5
2022-09-23T03:55:34.280Z,9.6
2022-09-23T03:56:34.279Z,9.5
2022-09-23T03:57:34.282Z,9.5
2022-09-23T03:58:34.320Z,9.5
2022-09-23T03:59:34.388Z,9.5
2022-09-23T04:00:34.456Z,9.5
2022-09-23T04:01:34.302Z,9.5
2022-09-23T04:02:34.389Z,9.4
2022-09-23T04:03:34.329Z,9.5
2022-09-23T04:04:34.342Z,9.5
2022-09-23T04:05:34.275Z,9.4
2022-09-23T04:06:34.348Z,9.4
2022-09-23T04:07:34.376Z,9.4
2022-09-23T04:08:34.386Z,9.4
2022-09-23T04:09:34.303Z,9.4
2022-09-23T04:10:34.276Z,9.4
2022-09-23T04:11:34.364Z,9.4
2022-09-23T04:12:34.287Z,9.3
2022-09-23T04:13:34.284Z,9.4
2022-09-23T04:14:34.271Z,9.3
2022-09-23T04:15:34.410Z,9.3
2022-09-23T04:16:34.343Z,9.2
2022-09-23T04:17:34.278Z,9.2
2022-09-23T04:18:34.280Z,9.2
2022-09-23T04:19:34.274Z,9.2
2022-09-23T04:20:34.297Z,9.2
2022-09-23T04:21:34.290Z,9.3
2022-09-23T04:22:34.389Z,9.3
2022-09-23T04:23:34.448Z,9.2
2022-09-23T04:24:34.360Z,9.2
2022-09-23T04:25:34.379Z,9.2
2022-09-23T04:26:34.390Z,9.2
2022-09-23T04:27:37.796Z,9.2
2022-09-23T04:28:34.391Z,9.2
2022-09-23T04:29:34.313Z,9.1
2022-09-23T04:30:34.439Z,9.2
2022-09-23T04:31:34.477Z,9.1
2022-09-23T04:32:34.311Z,9.1
2022-09-23T04:33:34.271Z,9.1
2022-09-23T04:34:34.366Z,9.1
2022-09-23T04:35:37.996Z,9
2022-09-23T04:36:34.277Z,9
2022-09-23T04:37:34.376Z,9.1
2022-09-23T04:38:34.377Z,9.1
2022-09-23T04:39:34.350Z,9.1
2022-09-23T04:40:34.541Z,9.1
2022-09-23T04:41:34.379Z,9.1
2022-09-23T04:42:34.433Z,9.1
2022-09-23T04:43:34.391Z,9.1
2022-09-23T04:44:34.377Z,9
2022-09-23T04:45:34.395Z,9
2022-09-23T04:46:34.617Z,9
2022-09-23T04:47:34.420Z,8.9
2022-09-23T04:48:34.310Z,9
2022-09-23T04:49:34.413Z,9
2022-09-23T04:50:34.318Z,9
2022-09-23T04:51:34.285Z,9
2022-09-23T04:52:34.325Z,8.9
2022-09-23T04:53:34.512Z,8.9
2022-09-23T04:54:34.353Z,8.9
2022-09-23T04:55:34.370Z,9
2022-09-23T04:56:34.362Z,9
2022-09-23T04:57:34.358Z,9
2022-09-23T04:58:34.367Z,9
2022-09-23T04:59:34.397Z,8.9
2022-09-23T05:00:34.474Z,9
2022-09-23T05:01:34.687Z,9
2022-09-23T05:02:34.368Z,8.9
2022-09-23T05:03:34.358Z,8.9
2022-09-23T05:04:34.314Z,8.9
2022-09-23T05:05:34.276Z,8.9
2022-09-23T05:06:34.321Z,8.9
2022-09-23T05:07:34.320Z,9
2022-09-23T05:08:34.362Z,9
2022-09-23T05:09:34.383Z,8.9
2022-09-23T05:10:34.291Z,8.9
2022-09-23T05:11:34.347Z,8.9
2022-09-23T05:12:34.278Z,8.9
2022-09-23T05:13:34.284Z,8.9
2022-09-23T05:14:34.294Z,8.9
2022-09-23T05:15:34.381Z,8.9
2022-09-23T05:16:34.438Z,8.9
2022-09-23T05:17:34.298Z,8.9
2022-09-23T05:18:34.299Z,8.9
2022-09-23T05:19:34.304Z,8.8
2022-09-23T05:20:34.324Z,8.8
2022-09-23T05:21:34.312Z,8.8
2022-09-23T05:22:34.324Z,8.8
2022-09-23T05:23:34.397Z,8.8
2022-09-23T05:24:34.399Z,8.8
2022-09-23T05:25:38.201Z,8.8
2022-09-23T05:26:34.454Z,8.8
2022-09-23T05:27:34.351Z,8.8
2022-09-23T05:28:34.365Z,8.9
2022-09-23T05:29:34.282Z,8.9
2022-09-23T05:30:34.376Z,8.9
2022-09-23T05:31:34.455Z,8.9
2022-09-23T05:32:34.500Z,8.9
2022-09-23T05:33:34.390Z,8.9
2022-09-23T05:34:34.300Z,8.9
2022-09-23T05:35:34.308Z,8.9
2022-09-23T05:36:37.812Z,8.9
2022-09-23T05:37:34.312Z,8.9
2022-09-23T05:38:34.328Z,9
2022-09-23T05:39:34.436Z,9
2022-09-23T05:40:34.364Z,9
2022-09-23T05:41:34.282Z,9.1
2022-09-23T05:42:34.287Z,9.1
2022-09-23T05:43:34.373Z,8.9
2022-09-23T05:44:34.378Z,9
2022-09-23T05:45:34.299Z,9
2022-09-23T05:46:34.461Z,9.1
2022-09-23T05:47:34.489Z,9
2022-09-23T05:48:34.313Z,9
2022-09-23T05:49:58.191Z,9.1
2022-09-23T05:50:34.283Z,9.1
2022-09-23T05:51:34.297Z,9.1
2022-09-23T05:52:34.406Z,9.1
2022-09-23T05:53:34.304Z,9.1
2022-09-23T05:54:34.420Z,9.1
2022-09-23T05:55:34.426Z,9.2
2022-09-23T05:56:34.278Z,9.1
2022-09-23T05:57:34.330Z,9.2
2022-09-23T05:58:34.344Z,9.1
2022-09-23T05:59:34.351Z,9.2
2022-09-23T06:00:34.363Z,9.2
2022-09-23T06:01:34.623Z,9.3
2022-09-23T06:02:34.551Z,9.2
2022-09-23T06:03:34.389Z,9.2
2022-09-23T06:04:34.557Z,9.3
2022-09-23T06:05:34.504Z,9.3
2022-09-23T06:06:34.540Z,9.4
2022-09-23T06:07:34.570Z,9.4
2022-09-23T06:08:34.630Z,9.4
2022-09-23T06:09:36.786Z,9.4
2022-09-23T06:10:34.659Z,9.4
2022-09-23T06:11:34.272Z,9.4
2022-09-23T06:12:34.294Z,9.5
2022-09-23T06:13:34.296Z,9.5
2022-09-23T06:14:34.299Z,9.6
2022-09-23T06:15:34.379Z,9.6
2022-09-23T06:16:34.464Z,9.6
2022-09-23T06:17:34.365Z,9.6
2022-09-23T06:18:34.400Z,9.8
2022-09-23T06:19:34.306Z,9.8
2022-09-23T06:20:34.275Z,9.8
2022-09-23T06:21:34.374Z,9.9
2022-09-23T06:22:38.311Z,10
2022-09-23T06:23:36.777Z,10
2022-09-23T06:24:34.371Z,10.1
2022-09-23T06:25:34.393Z,10.1
2022-09-23T06:26:34.299Z,10.2
2022-09-23T06:27:34.360Z,10.3
2022-09-23T06:28:34.285Z,10.2
2022-09-23T06:29:34.296Z,10.2
2022-09-23T06:30:34.288Z,10.2
2022-09-23T06:31:34.353Z,10.3
2022-09-23T06:32:34.463Z,10.4
2022-09-23T06:33:37.264Z,10.5
2022-09-23T06:34:46.437Z,10.5
2022-09-23T06:35:34.285Z,10.6
2022-09-23T06:36:42.128Z,10.5
2022-09-23T06:37:34.389Z,10.5
2022-09-23T06:38:34.311Z,10.5
2022-09-23T06:39:34.288Z,10.5
2022-09-23T06:40:34.387Z,10.6
2022-09-23T06:41:34.435Z,10.7
2022-09-23T06:42:34.634Z,10.7
2022-09-23T06:43:34.361Z,10.7
2022-09-23T06:44:34.345Z,10.7
2022-09-23T06:45:34.360Z,10.8
2022-09-23T06:46:34.416Z,10.9
2022-09-23T06:47:34.401Z,10.9
2022-09-23T06:48:34.404Z,10.9
2022-09-23T06:49:34.362Z,10.9
2022-09-23T06:50:34.374Z,11
2022-09-23T06:51:34.289Z,10.9
2022-09-23T06:52:34.326Z,11
2022-09-23T06:53:34.396Z,11.1
2022-09-23T06:54:34.432Z,11.1
2022-09-23T06:55:34.409Z,11.1
2022-09-23T06:56:38.715Z,11.1
2022-09-23T06:57:34.328Z,11.1
2022-09-23T06:58:34.327Z,11.1
2022-09-23T06:59:34.296Z,11.1
2022-09-23T07:00:34.284Z,11.1
2022-09-23T07:01:34.396Z,11.2
2022-09-23T07:02:34.511Z,11.3
2022-09-23T07:03:34.461Z,11.3
2022-09-23T07:04:34.316Z,11.4
2022-09-23T07:05:34.290Z,11.3
2022-09-23T07:06:34.387Z,11.3
2022-09-23T07:07:34.385Z,11.3
2022-09-23T07:08:34.392Z,11.3
2022-09-23T07:09:34.390Z,11.3
2022-09-23T07:10:34.414Z,11.4
2022-09-23T07:11:34.749Z,11.5
2022-09-23T07:12:34.307Z,11.5
2022-09-23T07:13:34.319Z,11.4
2022-09-23T07:14:34.310Z,11.4
2022-09-23T07:15:34.350Z,11.5
2022-09-23T07:16:34.302Z,11.6
2022-09-23T07:17:34.290Z,11.6
2022-09-23T07:18:36.937Z,11.6
2022-09-23T07:19:34.479Z,11.6
2022-09-23T07:20:34.368Z,11.6
2022-09-23T07:21:34.371Z,11.6
2022-09-23T07:22:34.367Z,11.7
2022-09-23T07:23:34.329Z,11.8
2022-09-23T07:24:34.388Z,11.8
2022-09-23T07:25:34.412Z,11.9
2022-09-23T07:26:34.371Z,12
2022-09-23T07:27:34.327Z,12.1
2022-09-23T07:28:34.413Z,12.2
2022-09-23T07:29:44.969Z,12.3
2022-09-23T07:30:34.298Z,12.3
2022-09-23T07:31:39.211Z,12.4
2022-09-23T07:32:45.531Z,12.3
2022-09-23T07:33:34.428Z,12.4
2022-09-23T07:34:34.406Z,12.4
2022-09-23T07:35:34.386Z,12.5
2022-09-23T07:36:34.369Z,12.7
2022-09-23T07:37:34.376Z,12.6
2022-09-23T07:38:34.288Z,12.7
2022-09-23T07:39:34.390Z,12.8
2022-09-23T07:40:34.354Z,12.9
2022-09-23T07:41:34.374Z,12.9
2022-09-23T07:42:34.399Z,13
2022-09-23T07:43:34.298Z,13.1
2022-09-23T07:44:34.325Z,13.1
2022-09-23T07:45:34.321Z,13.1
2022-09-23T07:46:34.449Z,13.1
2022-09-23T07:47:34.338Z,13.2
2022-09-23T07:48:34.863Z,13.3
2022-09-23T07:49:34.357Z,13.5
2022-09-23T07:50:34.374Z,13.7
2022-09-23T07:51:36.301Z,13.7
2022-09-23T07:52:34.287Z,13.8
2022-09-23T07:53:34.305Z,13.9
2022-09-23T07:54:34.384Z,13.9
2022-09-23T07:55:34.399Z,13.9
2022-09-23T07:56:34.370Z,13.9
2022-09-23T07:57:34.502Z,14.1
2022-09-23T07:58:34.406Z,14.2
2022-09-23T07:59:34.303Z,14.2
2022-09-23T08:00:34.314Z,14.2
2022-09-23T08:01:34.438Z,14.1
2022-09-23T08:02:34.490Z,14.1
2022-09-23T08:03:34.342Z,14.1
2022-09-23T08:04:34.392Z,14.1
2022-09-23T08:05:34.418Z,14.4
2022-09-23T08:06:34.338Z,14.4
2022-09-23T08:07:34.362Z,14.4
2022-09-23T08:08:34.470Z,14.4
2022-09-23T08:09:34.370Z,14.5
2022-09-23T08:10:34.302Z,14.5
2022-09-23T08:11:34.478Z,14.8
2022-09-23T08:12:34.488Z,15
2022-09-23T08:13:34.386Z,15.2
2022-09-23T08:14:34.398Z,15.4
2022-09-23T08:15:34.479Z,15.5
2022-09-23T08:16:34.315Z,15.4
2022-09-23T08:17:34.301Z,15.4
2022-09-23T08:18:34.289Z,15.5
2022-09-23T08:19:34.372Z,15.5
2022-09-23T08:20:34.411Z,15.6
2022-09-23T08:21:34.362Z,15.7
2022-09-23T08:22:34.351Z,15.8
2022-09-23T08:23:34.304Z,15.8
2022-09-23T08:24:34.285Z,15.8
2022-09-23T08:25:34.886Z,15.6
2022-09-23T08:26:34.392Z,15.7
2022-09-23T08:27:34.392Z,15.5
2022-09-23T08:28:34.408Z,15.6
2022-09-23T08:29:34.304Z,15.7
2022-09-23T08:30:34.302Z,15.8
2022-09-23T08:31:34.418Z,15.9
2022-09-23T08:32:34.284Z,16
2022-09-23T08:33:34.299Z,16.1
2022-09-23T08:34:34.430Z,16.1
2022-09-23T08:35:34.430Z,16.3
2022-09-23T08:36:34.336Z,16.3
2022-09-23T08:37:34.470Z,16.1
2022-09-23T08:38:34.359Z,16.2
2022-09-23T08:39:34.311Z,16.2
2022-09-23T08:40:34.552Z,16.4
2022-09-23T08:41:34.306Z,16.4
2022-09-23T08:42:34.376Z,16.5
2022-09-23T08:43:34.400Z,16.5
2022-09-23T08:44:34.393Z,16.6
2022-09-23T08:45:34.395Z,16.8
2022-09-23T08:46:34.451Z,16.8
2022-09-23T08:47:34.433Z,16.9
2022-09-23T08:48:34.315Z,16.6
2022-09-23T08:49:34.336Z,16.8
2022-09-23T08:50:34.437Z,17
2022-09-23T08:51:34.344Z,17.2
2022-09-23T08:52:34.311Z,17.4
2022-09-23T08:53:34.339Z,17.4
2022-09-23T08:54:34.302Z,17.3
2022-09-23T08:55:34.311Z,17.3
2022-09-23T08:56:35.444Z,17.3
2022-09-23T08:57:34.486Z,17.4
2022-09-23T08:58:34.490Z,17.4
2022-09-23T08:59:34.388Z,17.4
2022-09-23T09:00:34.499Z,17
2022-09-23T09:01:34.492Z,17.1
2022-09-23T09:02:34.494Z,17.1
2022-09-23T09:03:34.410Z,17.3
2022-09-23T09:04:34.314Z,17.4
2022-09-23T09:05:34.372Z,17.5
2022-09-23T09:06:41.918Z,17.4
2022-09-23T09:07:36.967Z,17.4
2022-09-23T09:08:34.359Z,17.3
2022-09-23T09:09:34.295Z,17.3
2022-09-23T09:10:34.399Z,17.3
2022-09-23T09:11:34.379Z,17.4
2022-09-23T09:12:34.370Z,17.5
2022-09-23T09:13:34.467Z,17.5
2022-09-23T09:14:34.387Z,17.5
2022-09-23T09:15:34.468Z,17.6
2022-09-23T09:16:58.545Z,17.6
2022-09-23T09:17:35.222Z,17.5
2022-09-23T09:18:34.321Z,17.5
2022-09-23T09:19:34.320Z,17.4
2022-09-23T09:20:34.414Z,17.1
2022-09-23T09:21:34.415Z,16.9
2022-09-23T09:22:34.346Z,17
2022-09-23T09:23:34.330Z,17
2022-09-23T09:24:34.305Z,17
2022-09-23T09:25:34.477Z,17.1
2022-09-23T09:26:34.361Z,17.2
2022-09-23T09:27:34.376Z,17.2
2022-09-23T09:28:34.387Z,17.4
2022-09-23T09:29:35.772Z,17.4
2022-09-23T09:30:34.383Z,17.5
2022-09-23T09:31:34.372Z,17.7
2022-09-23T09:32:34.407Z,17.8
2022-09-23T09:33:34.313Z,17.7
2022-09-23T09:34:34.318Z,17.6
2022-09-23T09:35:34.400Z,17.6
2022-09-23T09:36:34.520Z,17.6
2022-09-23T09:37:34.426Z,17.5
2022-09-23T09:38:34.326Z,17.5
2022-09-23T09:39:34.497Z,17.5
2022-09-23T09:40:34.374Z,17.5
2022-09-23T09:41:34.312Z,17.5
2022-09-23T09:42:34.305Z,17.5
2022-09-23T09:43:34.388Z,17.6
2022-09-23T09:44:37.043Z,17.5
2022-09-23T09:45:34.306Z,17.6
2022-09-23T09:46:34.408Z,17.7
2022-09-23T09:47:34.301Z,17.7
2022-09-23T09:48:34.306Z,17.7
2022-09-23T09:49:39.565Z,17.7
2022-09-23T09:50:34.316Z,17.7
2022-09-23T09:51:34.380Z,17.9
2022-09-23T09:52:34.324Z,18
2022-09-23T09:53:34.282Z,18.1
2022-09-23T09:54:34.258Z,18.3
2022-09-23T09:55:34.255Z,18.4
2022-09-23T09:56:34.338Z,18.2
2022-09-23T09:57:36.068Z,18.1
2022-09-23T09:58:34.399Z,18.2
2022-09-23T09:59:34.366Z,18.3
2022-09-23T10:00:34.264Z,18.4
2022-09-23T10:01:34.512Z,18.5
2022-09-23T10:02:34.323Z,18.5
2022-09-23T10:03:34.252Z,18.5
2022-09-23T10:04:34.384Z,18.6
2022-09-23T10:05:34.342Z,18.5
2022-09-23T10:06:34.461Z,18.6
2022-09-23T10:07:34.452Z,18.8
2022-09-23T10:08:34.266Z,18.9
2022-09-23T10:09:34.278Z,19
2022-09-23T10:10:34.439Z,19.2
2022-09-23T10:11:34.278Z,19.4
2022-09-23T10:12:34.274Z,19.3
2022-09-23T10:13:34.242Z,19.5
2022-09-23T10:14:34.368Z,19.4
2022-09-23T10:15:34.307Z,19.3
2022-09-23T10:16:34.370Z,19.3
2022-09-23T10:17:34.321Z,19.3
2022-09-23T10:18:34.321Z,19.5
2022-09-23T10:19:34.334Z,19.5
2022-09-23T10:20:34.328Z,19.5
2022-09-23T10:21:34.474Z,19.7
2022-09-23T10:22:34.357Z,19.7
2022-09-23T10:23:34.350Z,19.7
2022-09-23T10:24:34.266Z,19.9
2022-09-23T10:25:34.268Z,19.8
2022-09-23T10:26:34.276Z,19.8
2022-09-23T10:27:34.267Z,19.7
2022-09-23T10:28:34.261Z,19.6
2022-09-23T10:29:34.327Z,19.8
2022-09-23T10:30:34.287Z,19.7
2022-09-23T10:31:34.268Z,20
2022-09-23T10:32:34.265Z,20.1
2022-09-23T10:33:34.337Z,20
2022-09-23T10:34:34.262Z,20
2022-09-23T10:35:34.257Z,20.1
2022-09-23T10:36:34.375Z,19.9
2022-09-23T10:37:34.378Z,19.8
2022-09-23T10:38:34.263Z,20.1
2022-09-23T10:39:34.267Z,20.4
2022-09-23T10:40:34.347Z,20.5
2022-09-23T10:41:34.284Z,20.3
2022-09-23T10:42:34.274Z,20.2
2022-09-23T10:43:34.274Z,20.2
2022-09-23T10:44:34.391Z,20.3
2022-09-23T10:45:35.882Z,20.4
2022-09-23T10:46:34.354Z,20.3
2022-09-23T10:47:34.324Z,20.3
2022-09-23T10:48:34.311Z,20.3
2022-09-23T10:49:34.270Z,20.3
2022-09-23T10:50:34.270Z,20.4
2022-09-23T10:51:34.296Z,20.2
2022-09-23T10:52:34.348Z,20.2
2022-09-23T10:53:34.272Z,20.3
2022-09-23T10:54:34.381Z,20.4
2022-09-23T10:55:34.371Z,20.3
2022-09-23T10:56:34.287Z,20.2
2022-09-23T10:57:34.383Z,19.7
2022-09-23T10:58:34.397Z,19.9
2022-09-23T10:59:34.394Z,20.3
2022-09-23T11:00:34.466Z,20.4
2022-09-23T11:01:34.320Z,20.6
2022-09-23T11:02:34.420Z,20.4
2022-09-23T11:03:34.268Z,20.6
2022-09-23T11:04:34.338Z,20.8
2022-09-23T11:05:34.438Z,21
2022-09-23T11:06:34.357Z,21.1
2022-09-23T11:07:37.123Z,21
2022-09-23T11:08:34.461Z,20.9
2022-09-23T11:09:34.357Z,20.9
2022-09-23T11:10:49.614Z,20.7
2022-09-23T11:11:34.383Z,20.9
2022-09-23T11:12:34.402Z,21
2022-09-23T11:13:34.281Z,20.9
2022-09-23T11:14:34.302Z,21.3
2022-09-23T11:15:34.499Z,21.3
2022-09-23T11:16:34.365Z,21.2
2022-09-23T11:17:34.315Z,21.6
2022-09-23T11:18:34.328Z,21.6
2022-09-23T11:19:34.306Z,21.6
2022-09-23T11:20:34.292Z,21.7
2022-09-23T11:21:34.364Z,21.7
2022-09-23T11:22:34.447Z,21.7
2022-09-23T11:23:34.394Z,21.8
2022-09-23T11:24:34.354Z,21.8
2022-09-23T11:25:34.484Z,22
2022-09-23T11:26:34.372Z,22.1
2022-09-23T11:27:34.312Z,22
2022-09-23T11:28:34.399Z,22.2
2022-09-23T11:29:34.295Z,22.1
2022-09-23T11:30:34.421Z,21.9
2022-09-23T11:31:34.414Z,21.9
2022-09-23T11:32:34.305Z,22.3
2022-09-23T11:33:34.314Z,22.7
2022-09-23T11:34:34.436Z,23.1
2022-09-23T11:35:34.290Z,23.2
2022-09-23T11:36:34.349Z,23.1
2022-09-23T11:37:34.350Z,23.2
2022-09-23T11:38:34.449Z,23.5
2022-09-23T11:39:34.295Z,24
2022-09-23T11:40:34.495Z,24.4
2022-09-23T11:41:34.382Z,24.3
2022-09-23T11:42:34.310Z,24.4
2022-09-23T11:43:34.407Z,23.9
2022-09-23T11:44:34.300Z,24.1
2022-09-23T11:45:34.462Z,24.3
2022-09-23T11:46:34.388Z,23.9
2022-09-23T11:47:38.973Z,23.7
2022-09-23T11:48:34.401Z,24
2022-09-23T11:49:34.291Z,24.3
2022-09-23T11:50:34.326Z,25.2
2022-09-23T11:51:34.446Z,25.1
2022-09-23T11:52:34.354Z,24.9
2022-09-23T11:53:34.368Z,25.5
2022-09-23T11:54:34.453Z,25.2
2022-09-23T11:55:34.365Z,25.3
2022-09-23T11:56:36.316Z,25.8
2022-09-23T11:57:45.564Z,25.7
2022-09-23T11:58:34.411Z,25.7
2022-09-23T11:59:40.293Z,25.9
2022-09-23T12:00:34.356Z,26
2022-09-23T12:01:37.598Z,25.5
2022-09-23T12:02:34.380Z,25.2
2022-09-23T12:03:43.553Z,24.7
2022-09-23T12:04:34.597Z,24.6
2022-09-23T12:05:34.558Z,24.5
2022-09-23T12:06:34.590Z,24
2022-09-23T12:07:34.310Z,23.8
2022-09-23T12:08:34.446Z,23.7
2022-09-23T12:09:57.269Z,23.3
2022-09-23T12:10:34.400Z,23.3
2022-09-23T12:11:34.412Z,23.5
2022-09-23T12:12:34.368Z,23.1
2022-09-23T12:13:34.304Z,22.9
2022-09-23T12:14:34.429Z,22.8
2022-09-23T12:15:34.314Z,22.7
2022-09-23T12:16:34.473Z,22.8
2022-09-23T12:17:34.427Z,23
2022-09-23T12:18:34.414Z,23.2
2022-09-23T12:19:34.451Z,23.4
2022-09-23T12:20:34.422Z,24
2022-09-23T12:22:34.332Z,24.7
2022-09-23T12:23:34.320Z,24.9
2022-09-23T12:24:34.512Z,24.8
2022-09-23T12:25:34.364Z,24.4
2022-09-23T12:26:34.322Z,24.4
2022-09-23T12:27:34.381Z,24.8
2022-09-23T12:28:34.373Z,24.7
2022-09-23T12:29:34.380Z,24.7
2022-09-23T12:30:34.470Z,24.2
2022-09-23T12:31:37.554Z,24.2
2022-09-23T12:32:34.512Z,23.9
2022-09-23T12:33:34.393Z,24.1
2022-09-23T12:34:34.417Z,24
2022-09-23T12:35:34.321Z,23.6
2022-09-23T12:36:34.339Z,23.6
2022-09-23T12:37:34.427Z,23.5
2022-09-23T12:38:34.337Z,23.5
2022-09-23T12:39:34.387Z,23.1
2022-09-23T12:40:34.536Z,23.5
2022-09-23T12:41:34.364Z,23
2022-09-23T12:42:34.367Z,23.3
2022-09-23T12:43:34.369Z,22.6
2022-09-23T12:44:34.325Z,22.2
2022-09-23T12:45:34.581Z,22
2022-09-23T12:46:34.392Z,22
2022-09-23T12:47:34.497Z,22
2022-09-23T12:48:34.345Z,22.1
2022-09-23T12:49:34.323Z,22.5
2022-09-23T12:50:34.415Z,22.5
2022-09-23T12:51:34.538Z,22.5
2022-09-23T12:52:34.436Z,22.7
2022-09-23T12:53:34.428Z,22.8
2022-09-23T12:54:34.434Z,23
2022-09-23T12:55:34.438Z,23.2
2022-09-23T12:56:34.355Z,23.2
2022-09-23T12:57:34.478Z,22.9
2022-09-23T12:58:34.359Z,23.1
2022-09-23T12:59:34.336Z,23.4
2022-09-23T13:00:34.537Z,23.3
2022-09-23T13:01:34.476Z,23.3
2022-09-23T13:02:34.465Z,23.3
2022-09-23T13:03:34.493Z,23
2022-09-23T13:04:34.330Z,23.1
2022-09-23T13:05:34.513Z,23.3
2022-09-23T13:06:34.452Z,23.2
2022-09-23T13:07:34.426Z,22.8
2022-09-23T13:08:34.446Z,22.6
2022-09-23T13:09:34.437Z,22.5
2022-09-23T13:10:34.545Z,22.3
2022-09-23T13:11:34.452Z,22.1
2022-09-23T13:12:34.462Z,22.3
2022-09-23T13:13:34.357Z,22.4
2022-09-23T13:14:34.332Z,22.6
2022-09-23T13:15:34.333Z,22.7
2022-09-23T13:16:34.472Z,22.8
2022-09-23T13:17:34.494Z,23.2
2022-09-23T13:18:34.446Z,23.3
2022-09-23T13:19:38.684Z,23.5
2022-09-23T13:20:34.418Z,23.8
2022-09-23T13:21:34.445Z,23.7
2022-09-23T13:22:34.434Z,23.4
2022-09-23T13:23:34.421Z,23.3
2022-09-23T13:24:34.440Z,23
2022-09-23T13:25:34.436Z,22.9
2022-09-23T13:26:34.441Z,22.8
2022-09-23T13:27:34.347Z,22.7
2022-09-23T13:28:34.371Z,22.9
2022-09-23T13:29:34.961Z,22.7
2022-09-23T13:30:34.369Z,22.3
2022-09-23T13:31:34.429Z,22.3
2022-09-23T13:32:34.384Z,21.9
2022-09-23T13:33:34.479Z,21.8
2022-09-23T13:34:34.389Z,21.7
2022-09-23T13:35:34.405Z,21.7
2022-09-23T13:36:34.427Z,21.8